Time,TemperatureF,DewpointF,PressureIn,WindDirection,WindDirectionDegrees,WindSpeedMPH,WindSpeedGustMPH,Humidity,HourlyPrecipIn,Conditions,Clouds,dailyrainin,SoftwareType,DateUTC
2013-11-04 00:00:00,46.7,35.2,30.53,NNE,22,0.0,5.0,64,0.00,,,-99.99,WeatherLink 6.0.3,2013-11-04 05:00:00,
2013-11-04 00:02:00,41.3,36.5,30.32,North,11,0.0,0.0,83,0.00,,,0.00,Wunderground v.1.15,2013-11-04 05:02:00,
2013-11-04 00:03:00,41.4,36.6,30.32,North,11,0.0,0.0,83,0.00,,,0.00,Wunderground v.1.15,2013-11-04 05:03:00,
2013-11-04 00:07:00,41.5,37.3,30.33,North,10,0.0,0.0,85,0.00,,,0.00,Wunderground v.1.15,2013-11-04 05:07:00,
2013-11-04 00:08:00,41.5,37.0,30.33,North,10,0.0,0.0,84,0.00,,,0.00,Wunderground v.1.15,2013-11-04 05:08:00,
2013-11-04 00:14:00,41.2,36.7,30.33,North,10,0.0,0.0,84,0.00,,,0.00,Wunderground v.1.15,2013-11-04 05:14:00,
2013-11-04 00:17:00,41.0,36.2,30.33,North,11,0.0,0.0,83,0.00,,,0.00,Wunderground v.1.15,2013-11-04 05:17:00,
2013-11-04 00:22:00,40.7,36.2,30.34,North,10,0.0,0.0,84,0.00,,,0.00,Wunderground v.1.15,2013-11-04 05:22:00,
2013-11-04 00:28:00,40.8,36.0,30.33,North,10,0.0,0.0,83,0.00,,,0.00,Wunderground v.1.15,2013-11-04 05:28:00,
2013-11-04 00:30:00,48.3,37.1,30.53,NNE,22,0.0,6.0,65,0.00,,,-99.99,WeatherLink 6.0.3,2013-11-04 05:30:00,
2013-11-04 00:33:00,40.8,36.0,30.33,North,11,0.0,0.0,83,0.00,,,0.00,Wunderground v.1.15,2013-11-04 05:33:00,
2013-11-04 00:38:00,40.9,36.1,30.34,North,11,0.0,0.0,83,0.00,,,0.00,Wunderground v.1.15,2013-11-04 05:38:00,
2013-11-04 00:44:00,40.8,36.0,30.34,North,11,0.0,1.0,83,0.00,,,0.00,Wunderground v.1.15,2013-11-04 05:44:00,
2013-11-04 00:49:00,40.5,36.0,30.34,North,11,0.0,1.0,84,0.00,,,0.00,Wunderground v.1.15,2013-11-04 05:49:00,
2013-11-04 00:55:00,41.3,36.8,30.33,North,11,0.0,1.0,84,0.00,,,0.00,Wunderground v.1.15,2013-11-04 05:55:00,
2013-11-04 01:00:00,42.2,36.8,30.34,North,11,0.0,0.0,81,0.00,,,0.00,Wunderground v.1.15,2013-11-04 06:00:00,
2013-11-04 01:05:00,42.6,36.9,30.33,North,11,0.0,0.0,80,0.00,,,0.00,Wunderground v.1.15,2013-11-04 06:05:00,
2013-11-04 01:11:00,42.5,36.8,30.33,North,10,0.0,0.0,80,0.00,,,0.00,Wunderground v.1.15,2013-11-04 06:11:00,
2013-11-04 01:17:00,42.3,36.6,30.34,North,11,0.0,0.0,80,0.00,,,0.00,Wunderground v.1.15,2013-11-04 06:17:00,
2013-11-04 01:22:00,42.3,36.6,30.35,North,11,0.0,2.0,80,0.00,,,0.00,Wunderground v.1.15,2013-11-04 06:22:00,
2013-11-04 01:27:00,42.2,36.5,30.35,North,360,2.0,2.0,80,0.00,,,0.00,Wunderground v.1.15,2013-11-04 06:27:00,
2013-11-04 01:30:00,52.3,40.9,30.48,ENE,67,0.0,4.0,65,0.00,,,-99.99,WeatherLink 6.0.3,2013-11-04 06:30:00,
2013-11-04 01:33:00,42.2,36.8,30.35,NW,322,0.0,1.0,81,0.00,,,0.00,Wunderground v.1.15,2013-11-04 06:33:00,
2013-11-04 01:39:00,42.5,36.8,30.35,NW,321,0.0,1.0,80,0.00,,,0.00,Wunderground v.1.15,2013-11-04 06:39:00,
2013-11-04 01:44:00,42.6,36.5,30.35,WNW,295,0.0,1.0,79,0.00,,,0.00,Wunderground v.1.15,2013-11-04 06:44:00,
2013-11-04 01:50:00,42.8,36.4,30.36,WNW,295,0.0,1.0,78,0.00,,,0.00,Wunderground v.1.15,2013-11-04 06:50:00,
2013-11-04 01:55:00,43.0,36.9,30.36,WNW,295,0.0,1.0,79,0.00,,,0.00,Wunderground v.1.15,2013-11-04 06:55:00,
2013-11-04 02:00:00,55.7,43.7,30.46,ESE,112,1.0,6.0,64,0.00,,,-99.99,WeatherLink 6.0.3,2013-11-04 07:00:00,
2013-11-04 02:01:00,42.8,36.1,30.36,WNW,295,2.0,2.0,77,0.00,,,0.00,Wunderground v.1.15,2013-11-04 07:01:00,
2013-11-04 02:06:00,42.6,36.2,30.36,WNW,295,0.0,2.0,78,0.00,,,0.00,Wunderground v.1.15,2013-11-04 07:06:00,
2013-11-04 02:11:00,42.5,36.4,30.36,WNW,295,1.0,1.0,79,0.00,,,0.00,Wunderground v.1.15,2013-11-04 07:11:00,
2013-11-04 02:16:00,42.6,36.2,30.36,WNW,295,1.0,2.0,78,0.00,,,0.00,Wunderground v.1.15,2013-11-04 07:16:00,
2013-11-04 02:21:00,42.5,36.1,30.37,WNW,295,0.0,1.0,78,0.00,,,0.00,Wunderground v.1.15,2013-11-04 07:21:00,
2013-11-04 02:26:00,42.4,36.3,30.37,WNW,295,0.0,2.0,79,0.00,,,0.00,Wunderground v.1.15,2013-11-04 07:26:00,
2013-11-04 02:30:00,54.8,43.7,30.45,ESE,112,1.0,6.0,66,0.00,,,-99.99,WeatherLink 6.0.3,2013-11-04 07:30:00,
2013-11-04 02:31:00,42.4,36.0,30.37,WNW,295,0.0,0.0,78,0.00,,,0.00,Wunderground v.1.15,2013-11-04 07:31:00,
2013-11-04 02:36:00,42.4,36.3,30.37,WNW,295,0.0,0.0,79,0.00,,,0.00,Wunderground v.1.15,2013-11-04 07:36:00,
2013-11-04 02:41:00,42.3,36.9,30.37,WNW,295,0.0,0.0,81,0.00,,,0.00,Wunderground v.1.15,2013-11-04 07:41:00,
2013-11-04 02:46:00,42.2,37.4,30.37,WNW,295,0.0,0.0,83,0.00,,,0.00,Wunderground v.1.15,2013-11-04 07:46:00,
2013-11-04 02:51:00,42.1,36.7,30.37,WNW,295,0.0,0.0,81,0.00,,,0.00,Wunderground v.1.15,2013-11-04 07:51:00,
2013-11-04 02:56:00,41.9,36.2,30.37,WNW,295,0.0,1.0,80,0.00,,,0.00,Wunderground v.1.15,2013-11-04 07:56:00,
2013-11-04 03:00:00,55.1,44.7,30.45,NNE,22,1.0,4.0,68,0.00,,,-99.99,WeatherLink 6.0.3,2013-11-04 08:00:00,
2013-11-04 03:01:00,41.5,35.8,30.37,WNW,295,0.0,0.0,80,0.00,,,0.00,Wunderground v.1.15,2013-11-04 08:01:00,
2013-11-04 03:06:00,41.4,36.3,30.37,WNW,295,0.0,0.0,82,0.00,,,0.00,Wunderground v.1.15,2013-11-04 08:06:00,
2013-11-04 03:11:00,41.1,36.3,30.37,WNW,295,0.0,0.0,83,0.00,,,0.00,Wunderground v.1.15,2013-11-04 08:11:00,
2013-11-04 03:16:00,40.7,36.2,30.37,WNW,295,0.0,0.0,84,0.00,,,0.00,Wunderground v.1.15,2013-11-04 08:16:00,
2013-11-04 03:21:00,40.5,36.0,30.38,WNW,295,0.0,0.0,84,0.00,,,0.00,Wunderground v.1.15,2013-11-04 08:21:00,
2013-11-04 03:26:00,40.0,35.6,30.38,WNW,295,0.0,0.0,84,0.00,,,0.00,Wunderground v.1.15,2013-11-04 08:26:00,
2013-11-04 03:30:00,55.5,45.9,30.43,NE,45,0.0,4.0,70,0.00,,,-99.99,WeatherLink 6.0.3,2013-11-04 08:30:00,
2013-11-04 03:31:00,39.6,35.8,30.37,WNW,295,0.0,0.0,86,0.00,,,0.00,Wunderground v.1.15,2013-11-04 08:31:00,
2013-11-04 03:36:00,39.3,35.5,30.37,WNW,295,0.0,0.0,86,0.00,,,0.00,Wunderground v.1.15,2013-11-04 08:36:00,
2013-11-04 03:41:00,38.9,35.4,30.38,WNW,295,0.0,0.0,87,0.00,,,0.00,Wunderground v.1.15,2013-11-04 08:41:00,
2013-11-04 03:46:00,39.1,36.1,30.37,WNW,295,0.0,0.0,89,0.00,,,0.00,Wunderground v.1.15,2013-11-04 08:46:00,
2013-11-04 03:51:00,39.1,36.1,30.37,WNW,295,0.0,0.0,89,0.00,,,0.00,Wunderground v.1.15,2013-11-04 08:51:00,
2013-11-04 03:56:00,39.0,35.7,30.37,WNW,295,0.0,0.0,88,0.00,,,0.00,Wunderground v.1.15,2013-11-04 08:56:00,
2013-11-04 04:00:00,57.2,47.1,30.42,North,0,0.0,3.0,69,0.00,,,-99.99,WeatherLink 6.0.3,2013-11-04 09:00:00,
2013-11-04 04:01:00,38.8,35.8,30.38,WNW,295,0.0,0.0,89,0.00,,,0.00,Wunderground v.1.15,2013-11-04 09:01:00,
2013-11-04 04:06:00,38.8,36.1,30.38,WNW,295,0.0,0.0,90,0.00,,,0.00,Wunderground v.1.15,2013-11-04 09:06:00,
2013-11-04 04:11:00,38.3,35.1,30.38,WNW,295,0.0,0.0,88,0.00,,,0.00,Wunderground v.1.15,2013-11-04 09:11:00,
2013-11-04 04:16:00,38.0,35.0,30.38,WNW,295,0.0,0.0,89,0.00,,,0.00,Wunderground v.1.15,2013-11-04 09:16:00,
2013-11-04 04:21:00,37.9,35.8,30.38,WNW,295,0.0,0.0,92,0.00,,,0.00,Wunderground v.1.15,2013-11-04 09:21:00,
2013-11-04 04:26:00,38.3,36.2,30.39,WNW,295,0.0,0.0,92,0.00,,,0.00,Wunderground v.1.15,2013-11-04 09:26:00,
2013-11-04 04:30:00,57.4,47.3,30.42,NNE,22,0.0,5.0,69,0.00,,,-99.99,WeatherLink 6.0.3,2013-11-04 09:30:00,
2013-11-04 04:31:00,38.3,35.6,30.39,WNW,295,0.0,0.0,90,0.00,,,0.00,Wunderground v.1.15,2013-11-04 09:31:00,
2013-11-04 04:36:00,38.0,35.3,30.39,WNW,295,0.0,0.0,90,0.00,,,0.00,Wunderground v.1.15,2013-11-04 09:36:00,
2013-11-04 04:41:00,37.9,34.9,30.39,WNW,295,0.0,0.0,89,0.00,,,0.00,Wunderground v.1.15,2013-11-04 09:41:00,
2013-11-04 04:46:00,37.8,35.1,30.39,WNW,295,0.0,0.0,90,0.00,,,0.00,Wunderground v.1.15,2013-11-04 09:46:00,
2013-11-04 04:51:00,37.7,35.3,30.40,WNW,295,0.0,0.0,91,0.00,,,0.00,Wunderground v.1.15,2013-11-04 09:51:00,
2013-11-04 04:56:00,37.7,35.0,30.40,WNW,295,0.0,0.0,90,0.00,,,0.00,Wunderground v.1.15,2013-11-04 09:56:00,
2013-11-04 05:00:00,57.9,48.2,30.41,ESE,112,1.0,7.0,70,0.00,,,-99.99,WeatherLink 6.0.3,2013-11-04 10:00:00,
2013-11-04 05:02:00,37.7,35.3,30.40,WNW,295,0.0,0.0,91,0.00,,,0.00,Wunderground v.1.15,2013-11-04 10:02:00,
2013-11-04 05:07:00,37.5,34.8,30.41,WNW,295,0.0,0.0,90,0.00,,,0.00,Wunderground v.1.15,2013-11-04 10:07:00,
2013-11-04 05:12:00,37.6,34.9,30.41,WNW,295,0.0,0.0,90,0.00,,,0.00,Wunderground v.1.15,2013-11-04 10:12:00,
2013-11-04 05:17:00,37.8,35.7,30.41,WNW,295,0.0,0.0,92,0.00,,,0.00,Wunderground v.1.15,2013-11-04 10:17:00,
2013-11-04 05:22:00,37.8,35.1,30.42,WNW,295,0.0,0.0,90,0.00,,,0.00,Wunderground v.1.15,2013-11-04 10:22:00,
2013-11-04 05:27:00,37.7,35.0,30.43,WNW,295,0.0,0.0,90,0.00,,,0.00,Wunderground v.1.15,2013-11-04 10:27:00,
2013-11-04 05:30:00,57.7,48.0,30.41,ESE,112,1.0,3.0,70,0.00,,,-99.99,WeatherLink 6.0.3,2013-11-04 10:30:00,
2013-11-04 05:32:00,37.8,35.4,30.43,WNW,295,0.0,0.0,91,0.00,,,0.00,Wunderground v.1.15,2013-11-04 10:32:00,
2013-11-04 05:37:00,37.8,35.1,30.43,WNW,295,0.0,0.0,90,0.00,,,0.00,Wunderground v.1.15,2013-11-04 10:37:00,
2013-11-04 05:42:00,37.8,35.4,30.43,WNW,295,0.0,0.0,91,0.00,,,0.00,Wunderground v.1.15,2013-11-04 10:42:00,
2013-11-04 05:47:00,37.7,35.3,30.43,WNW,295,0.0,0.0,91,0.00,,,0.00,Wunderground v.1.15,2013-11-04 10:47:00,
2013-11-04 05:52:00,37.8,35.7,30.44,WNW,295,0.0,0.0,92,0.00,,,0.00,Wunderground v.1.15,2013-11-04 10:52:00,
2013-11-04 05:57:00,37.7,34.8,30.44,WNW,295,0.0,1.0,89,0.00,,,0.00,Wunderground v.1.15,2013-11-04 10:57:00,
2013-11-04 06:00:00,56.6,48.0,30.40,ESE,112,0.0,3.0,73,0.00,,,-99.99,WeatherLink 6.0.3,2013-11-04 11:00:00,
2013-11-04 06:02:00,37.7,35.3,30.44,WNW,295,0.0,1.0,91,0.00,,,0.00,Wunderground v.1.15,2013-11-04 11:02:00,
2013-11-04 06:07:00,37.7,35.0,30.44,WNW,295,0.0,1.0,90,0.00,,,0.00,Wunderground v.1.15,2013-11-04 11:07:00,
2013-11-04 06:12:00,37.6,34.9,30.44,WNW,295,0.0,0.0,90,0.00,,,0.00,Wunderground v.1.15,2013-11-04 11:12:00,
2013-11-04 06:14:00,37.7,35.3,30.44,WNW,295,0.0,0.0,91,0.00,,,0.00,Wunderground v.1.15,2013-11-04 11:14:00,
2013-11-04 06:19:00,37.9,35.5,30.45,WNW,295,0.0,1.0,91,0.00,,,0.00,Wunderground v.1.15,2013-11-04 11:19:00,
2013-11-04 06:23:00,38.0,35.3,30.45,WNW,295,0.0,0.0,90,0.00,,,0.00,Wunderground v.1.15,2013-11-04 11:23:00,
2013-11-04 06:28:00,37.9,35.2,30.45,WNW,295,0.0,1.0,90,0.00,,,0.00,Wunderground v.1.15,2013-11-04 11:28:00,
2013-11-04 06:30:00,56.1,47.9,30.40,ESE,112,0.0,1.0,74,0.00,,,-99.99,WeatherLink 6.0.3,2013-11-04 11:30:00,
2013-11-04 06:33:00,37.7,35.0,30.45,WNW,295,0.0,0.0,90,0.00,,,0.00,Wunderground v.1.15,2013-11-04 11:33:00,
2013-11-04 06:38:00,37.7,35.0,30.46,WNW,295,0.0,0.0,90,0.00,,,0.00,Wunderground v.1.15,2013-11-04 11:38:00,
2013-11-04 06:43:00,37.5,34.6,30.46,WNW,295,0.0,1.0,89,0.00,,,0.00,Wunderground v.1.15,2013-11-04 11:43:00,
2013-11-04 06:48:00,37.3,34.4,30.46,WNW,295,0.0,1.0,89,0.00,,,0.00,Wunderground v.1.15,2013-11-04 11:48:00,
2013-11-04 06:53:00,37.3,34.4,30.47,WNW,295,0.0,0.0,89,0.00,,,0.00,Wunderground v.1.15,2013-11-04 11:53:00,
2013-11-04 06:58:00,37.5,35.1,30.47,WNW,295,0.0,0.0,91,0.00,,,0.00,Wunderground v.1.15,2013-11-04 11:58:00,
2013-11-04 07:00:00,54.3,47.6,30.40,North,-999,0.0,0.0,78,0.00,,,-99.99,WeatherLink 6.0.3,2013-11-04 12:00:00,
2013-11-04 07:03:00,37.8,34.8,30.47,WNW,295,0.0,1.0,89,0.00,,,0.00,Wunderground v.1.15,2013-11-04 12:03:00,
2013-11-04 07:08:00,37.8,35.1,30.47,WNW,295,0.0,1.0,90,0.00,,,0.00,Wunderground v.1.15,2013-11-04 12:08:00,
2013-11-04 07:13:00,37.9,35.2,30.47,WNW,295,0.0,0.0,90,0.00,,,0.00,Wunderground v.1.15,2013-11-04 12:13:00,
2013-11-04 07:19:00,38.2,35.8,30.48,WNW,295,0.0,0.0,91,0.00,,,0.00,Wunderground v.1.15,2013-11-04 12:19:00,
2013-11-04 07:23:00,38.5,36.4,30.48,WNW,295,0.0,0.0,92,0.00,,,0.00,Wunderground v.1.15,2013-11-04 12:23:00,
2013-11-04 07:29:00,38.6,36.2,30.49,WNW,295,0.0,0.0,91,0.00,,,0.00,Wunderground v.1.15,2013-11-04 12:29:00,
2013-11-04 07:30:00,52.7,47.7,30.41,North,-999,0.0,0.0,83,0.00,,,-99.99,WeatherLink 6.0.3,2013-11-04 12:30:00,
2013-11-04 07:34:00,39.0,36.3,30.49,WNW,295,0.0,0.0,90,0.00,,,0.00,Wunderground v.1.15,2013-11-04 12:34:00,
2013-11-04 07:39:00,39.5,37.1,30.49,WNW,295,0.0,0.0,91,0.00,,,0.00,Wunderground v.1.15,2013-11-04 12:39:00,
2013-11-04 07:44:00,39.8,36.2,30.49,WNW,295,0.0,1.0,87,0.00,,,0.00,Wunderground v.1.15,2013-11-04 12:44:00,
2013-11-04 07:49:00,40.5,36.3,30.49,WNW,295,0.0,1.0,85,0.00,,,0.00,Wunderground v.1.15,2013-11-04 12:49:00,
2013-11-04 07:54:00,41.4,36.3,30.49,WNW,295,0.0,2.0,82,0.00,,,0.00,Wunderground v.1.15,2013-11-04 12:54:00,
2013-11-04 07:59:00,42.2,36.2,30.49,WNW,295,0.0,2.0,79,0.00,,,0.00,Wunderground v.1.15,2013-11-04 12:59:00,
2013-11-04 08:00:00,52.8,48.4,30.41,North,-999,0.0,0.0,85,0.00,,,-99.99,WeatherLink 6.0.3,2013-11-04 13:00:00,
2013-11-04 08:04:00,42.9,37.5,30.49,WNW,295,0.0,0.0,81,0.00,,,0.00,Wunderground v.1.15,2013-11-04 13:04:00,
2013-11-04 08:09:00,43.5,35.8,30.49,WNW,295,0.0,1.0,74,0.00,,,0.00,Wunderground v.1.15,2013-11-04 13:09:00,
2013-11-04 08:14:00,44.0,35.6,30.49,WNW,295,0.0,1.0,72,0.00,,,0.00,Wunderground v.1.15,2013-11-04 13:14:00,
2013-11-04 08:19:00,44.7,35.9,30.49,NW,313,0.0,2.0,71,0.00,,,0.00,Wunderground v.1.15,2013-11-04 13:19:00,
2013-11-04 08:24:00,45.2,35.3,30.49,NW,314,0.0,2.0,68,0.00,,,0.00,Wunderground v.1.15,2013-11-04 13:24:00,
2013-11-04 08:29:00,45.5,35.2,30.49,East,97,0.0,6.0,67,0.00,,,0.00,Wunderground v.1.15,2013-11-04 13:29:00,
2013-11-04 08:30:00,52.8,48.4,30.42,North,-999,0.0,0.0,85,0.00,,,-99.99,WeatherLink 6.0.3,2013-11-04 13:30:00,
2013-11-04 08:34:00,45.6,35.3,30.49,East,98,0.0,3.0,67,0.00,,,0.00,Wunderground v.1.15,2013-11-04 13:34:00,
2013-11-04 08:39:00,45.7,35.4,30.49,NNE,19,0.0,3.0,67,0.00,,,0.00,Wunderground v.1.15,2013-11-04 13:39:00,
2013-11-04 08:44:00,45.9,35.9,30.49,NNE,20,1.0,1.0,68,0.00,,,0.00,Wunderground v.1.15,2013-11-04 13:44:00,
2013-11-04 08:49:00,46.1,34.6,30.49,NNE,19,0.0,3.0,64,0.00,,,0.00,Wunderground v.1.15,2013-11-04 13:49:00,
2013-11-04 08:54:00,46.2,35.1,30.50,NNE,20,0.0,3.0,65,0.00,,,0.00,Wunderground v.1.15,2013-11-04 13:54:00,
2013-11-04 08:59:00,46.5,34.6,30.50,North,5,0.0,4.0,63,0.00,,,0.00,Wunderground v.1.15,2013-11-04 13:59:00,
2013-11-04 09:00:00,53.1,48.4,30.42,North,-999,0.0,0.0,84,0.00,,,-99.99,WeatherLink 6.0.3,2013-11-04 14:00:00,
2013-11-04 09:04:00,46.9,35.4,30.50,NNE,13,2.0,5.0,64,0.00,,,0.00,Wunderground v.1.15,2013-11-04 14:04:00,
2013-11-04 09:09:00,47.6,35.2,30.49,NNE,24,1.0,5.0,62,0.00,,,0.00,Wunderground v.1.15,2013-11-04 14:09:00,
2013-11-04 09:14:00,48.7,35.4,30.49,ESE,111,4.0,6.0,60,0.00,,,0.00,Wunderground v.1.15,2013-11-04 14:14:00,
2013-11-04 09:19:00,49.3,36.0,30.49,ESE,104,0.0,11.0,60,0.00,,,0.00,Wunderground v.1.15,2013-11-04 14:19:00,
2013-11-04 09:24:00,49.8,35.2,30.49,East,92,4.0,12.0,57,0.00,,,0.00,Wunderground v.1.15,2013-11-04 14:24:00,
2013-11-04 09:30:00,49.9,35.7,30.50,ESE,107,0.0,4.0,58,0.00,,,0.00,Wunderground v.1.15,2013-11-04 14:30:00,
2013-11-04 09:35:00,50.0,35.8,30.49,SE,127,4.0,4.0,58,0.00,,,0.00,Wunderground v.1.15,2013-11-04 14:35:00,
2013-11-04 09:40:00,49.8,35.2,30.49,ESE,102,7.0,10.0,57,0.00,,,0.00,Wunderground v.1.15,2013-11-04 14:40:00,
2013-11-04 09:45:00,50.0,36.2,30.48,East,100,1.0,10.0,59,0.00,,,0.00,Wunderground v.1.15,2013-11-04 14:45:00,
2013-11-04 09:50:00,50.8,35.7,30.49,ESE,106,0.0,2.0,56,0.00,,,0.00,Wunderground v.1.15,2013-11-04 14:50:00,
2013-11-04 09:55:00,51.0,34.9,30.49,ESE,108,4.0,6.0,54,0.00,,,0.00,Wunderground v.1.15,2013-11-04 14:55:00,
2013-11-04 10:00:00,51.6,35.9,30.49,ESE,121,0.0,2.0,55,0.00,,,0.00,Wunderground v.1.15,2013-11-04 15:00:00,
2013-11-04 10:05:00,52.4,35.3,30.49,East,100,3.0,5.0,52,0.00,,,0.00,Wunderground v.1.15,2013-11-04 15:05:00,
2013-11-04 10:10:00,52.4,35.3,30.49,NE,41,1.0,3.0,52,0.00,,,0.00,Wunderground v.1.15,2013-11-04 15:10:00,
2013-11-04 10:15:00,52.5,34.9,30.49,East,89,2.0,9.0,51,0.00,,,0.00,Wunderground v.1.15,2013-11-04 15:15:00,
2013-11-04 10:20:00,52.6,34.0,30.50,ESE,113,7.0,9.0,49,0.00,,,0.00,Wunderground v.1.15,2013-11-04 15:20:00,
2013-11-04 10:25:00,52.1,34.5,30.50,South,183,2.0,9.0,51,0.00,,,0.00,Wunderground v.1.15,2013-11-04 15:25:00,
2013-11-04 10:30:00,52.5,35.4,30.50,NE,45,2.0,3.0,52,0.00,,,0.00,Wunderground v.1.15,2013-11-04 15:30:00,
2013-11-04 10:35:00,53.1,33.9,30.49,SSE,163,1.0,5.0,48,0.00,,,0.00,Wunderground v.1.15,2013-11-04 15:35:00,
2013-11-04 10:40:00,53.1,33.9,30.49,East,91,4.0,5.0,48,0.00,,,0.00,Wunderground v.1.15,2013-11-04 15:40:00,
2013-11-04 10:45:00,53.6,34.9,30.50,ENE,71,2.0,7.0,49,0.00,,,0.00,Wunderground v.1.15,2013-11-04 15:45:00,
2013-11-04 10:50:00,54.3,33.9,30.49,ESE,115,0.0,7.0,46,0.00,,,0.00,Wunderground v.1.15,2013-11-04 15:50:00,
2013-11-04 10:56:00,54.4,34.0,30.49,ESE,103,6.0,7.0,46,0.00,,,0.00,Wunderground v.1.15,2013-11-04 15:56:00,
2013-11-04 11:00:00,54.1,33.8,30.48,ESE,109,4.0,7.0,46,0.00,,,0.00,Wunderground v.1.15,2013-11-04 16:00:00,
2013-11-04 11:06:00,53.3,31.9,30.48,SSE,159,1.0,12.0,44,0.00,,,0.00,Wunderground v.1.15,2013-11-04 16:06:00,
2013-11-04 11:11:00,53.1,32.8,30.48,SE,128,1.0,5.0,46,0.00,,,0.00,Wunderground v.1.15,2013-11-04 16:11:00,
2013-11-04 11:16:00,53.9,34.6,30.47,East,93,3.0,5.0,48,0.00,,,0.00,Wunderground v.1.15,2013-11-04 16:16:00,
2013-11-04 11:21:00,55.2,33.1,30.47,ESE,114,7.0,7.0,43,0.00,,,0.00,Wunderground v.1.15,2013-11-04 16:21:00,
2013-11-04 11:26:00,54.0,33.7,30.48,ESE,120,6.0,10.0,46,0.00,,,0.00,Wunderground v.1.15,2013-11-04 16:26:00,
2013-11-04 11:30:00,50.5,49.4,30.42,ESE,112,0.0,2.0,96,0.01,,,-99.99,WeatherLink 6.0.3,2013-11-04 16:30:00,
2013-11-04 11:31:00,53.6,33.3,30.47,ESE,105,0.0,4.0,46,0.00,,,0.00,Wunderground v.1.15,2013-11-04 16:31:00,
2013-11-04 11:36:00,53.7,32.3,30.47,East,95,5.0,13.0,44,0.00,,,0.00,Wunderground v.1.15,2013-11-04 16:36:00,
2013-11-04 11:41:00,54.4,33.5,30.47,ESE,108,2.0,5.0,45,0.00,,,0.00,Wunderground v.1.15,2013-11-04 16:41:00,
2013-11-04 11:46:00,54.7,31.4,30.47,SE,142,0.0,12.0,41,0.00,,,0.00,Wunderground v.1.15,2013-11-04 16:46:00,
2013-11-04 11:51:00,54.9,32.8,30.47,ESE,119,3.0,7.0,43,0.00,,,0.00,Wunderground v.1.15,2013-11-04 16:51:00,
2013-11-04 11:56:00,55.3,33.2,30.47,East,97,1.0,7.0,43,0.00,,,0.00,Wunderground v.1.15,2013-11-04 16:56:00,
2013-11-04 12:00:00,50.4,49.3,30.41,ESE,112,0.0,1.0,96,0.02,,,-99.99,WeatherLink 6.0.3,2013-11-04 17:00:00,
2013-11-04 12:01:00,55.7,33.5,30.46,NE,34,1.0,2.0,43,0.00,,,0.00,Wunderground v.1.15,2013-11-04 17:01:00,
2013-11-04 12:06:00,56.1,32.7,30.46,WSW,242,0.0,6.0,41,0.00,,,0.00,Wunderground v.1.15,2013-11-04 17:06:00,
2013-11-04 12:11:00,56.3,32.3,30.46,ESE,121,1.0,5.0,40,0.00,,,0.00,Wunderground v.1.15,2013-11-04 17:11:00,
2013-11-04 12:16:00,56.3,33.5,30.45,East,89,2.0,5.0,42,0.00,,,0.00,Wunderground v.1.15,2013-11-04 17:16:00,
2013-11-04 12:21:00,57.3,34.4,30.45,SE,131,3.0,7.0,42,0.00,,,0.00,Wunderground v.1.15,2013-11-04 17:21:00,
2013-11-04 12:26:00,58.1,33.9,30.45,ESE,111,0.0,7.0,40,0.00,,,0.00,Wunderground v.1.15,2013-11-04 17:26:00,
2013-11-04 12:30:00,50.3,49.2,30.41,ESE,112,0.0,1.0,96,0.01,,,-99.99,WeatherLink 6.0.3,2013-11-04 17:30:00,
2013-11-04 12:31:00,58.4,34.2,30.45,North,355,0.0,6.0,40,0.00,,,0.00,Wunderground v.1.15,2013-11-04 17:31:00,
2013-11-04 12:36:00,57.9,34.3,30.44,ESE,123,6.0,7.0,41,0.00,,,0.00,Wunderground v.1.15,2013-11-04 17:36:00,
2013-11-04 12:41:00,57.3,33.2,30.44,ESE,110,6.0,11.0,40,0.00,,,0.00,Wunderground v.1.15,2013-11-04 17:41:00,
2013-11-04 12:46:00,56.5,33.7,30.44,ESE,119,1.0,11.0,42,0.00,,,0.00,Wunderground v.1.15,2013-11-04 17:46:00,
2013-11-04 12:51:00,57.3,33.2,30.44,ENE,71,2.0,3.0,40,0.00,,,0.00,Wunderground v.1.15,2013-11-04 17:51:00,
2013-11-04 12:56:00,57.4,33.9,30.44,ESE,115,5.0,10.0,41,0.00,,,0.00,Wunderground v.1.15,2013-11-04 17:56:00,
2013-11-04 13:00:00,50.1,49.3,30.40,ESE,112,0.0,3.0,97,0.01,,,-99.99,WeatherLink 6.0.3,2013-11-04 18:00:00,
2013-11-04 13:01:00,57.3,33.2,30.45,North,11,0.0,2.0,40,0.00,,,0.00,Wunderground v.1.15,2013-11-04 18:01:00,
2013-11-04 13:06:00,57.2,33.1,30.44,ESE,106,1.0,3.0,40,0.00,,,0.00,Wunderground v.1.15,2013-11-04 18:06:00,
2013-11-04 13:11:00,57.6,34.1,30.43,East,93,0.0,2.0,41,0.00,,,0.00,Wunderground v.1.15,2013-11-04 18:11:00,
2013-11-04 13:16:00,58.0,33.2,30.43,NNE,24,0.0,4.0,39,0.00,,,0.00,Wunderground v.1.15,2013-11-04 18:16:00,
2013-11-04 13:21:00,57.7,34.1,30.43,ENE,63,4.0,4.0,41,0.00,,,0.00,Wunderground v.1.15,2013-11-04 18:21:00,
2013-11-04 13:26:00,57.2,33.7,30.43,SE,140,3.0,7.0,41,0.00,,,0.00,Wunderground v.1.15,2013-11-04 18:26:00,
2013-11-04 13:30:00,50.0,49.2,30.39,ESE,112,0.0,2.0,97,0.02,,,-99.99,WeatherLink 6.0.3,2013-11-04 18:30:00,
2013-11-04 13:31:00,56.9,32.8,30.43,WSW,248,0.0,2.0,40,0.00,,,0.00,Wunderground v.1.15,2013-11-04 18:31:00,
2013-11-04 13:36:00,57.0,32.9,30.43,ESE,118,5.0,7.0,40,0.00,,,0.00,Wunderground v.1.15,2013-11-04 18:36:00,
2013-11-04 13:41:00,57.4,33.3,30.42,NE,38,1.0,3.0,40,0.00,,,0.00,Wunderground v.1.15,2013-11-04 18:41:00,
2013-11-04 13:46:00,57.1,33.0,30.42,NE,36,1.0,5.0,40,0.00,,,0.00,Wunderground v.1.15,2013-11-04 18:46:00,
2013-11-04 13:51:00,57.2,33.7,30.42,East,94,0.0,4.0,41,0.00,,,0.00,Wunderground v.1.15,2013-11-04 18:51:00,
2013-11-04 13:57:00,57.8,34.2,30.42,East,97,2.0,4.0,41,0.00,,,0.00,Wunderground v.1.15,2013-11-04 18:57:00,
2013-11-04 14:00:00,50.3,49.5,30.38,NNW,337,0.0,3.0,97,0.01,,,-99.99,WeatherLink 6.0.3,2013-11-04 19:00:00,
2013-11-04 14:02:00,58.6,35.6,30.42,ESE,107,5.0,7.0,42,0.00,,,0.00,Wunderground v.1.15,2013-11-04 19:02:00,
2013-11-04 14:07:00,58.7,35.0,30.43,SE,125,4.0,7.0,41,0.00,,,0.00,Wunderground v.1.15,2013-11-04 19:07:00,
2013-11-04 14:12:00,57.9,34.9,30.43,ENE,69,0.0,4.0,42,0.00,,,0.00,Wunderground v.1.15,2013-11-04 19:12:00,
2013-11-04 14:17:00,57.9,34.9,30.42,ENE,59,1.0,4.0,42,0.00,,,0.00,Wunderground v.1.15,2013-11-04 19:17:00,
2013-11-04 14:22:00,57.9,33.7,30.42,ESE,110,0.0,4.0,40,0.00,,,0.00,Wunderground v.1.15,2013-11-04 19:22:00,
2013-11-04 14:27:00,58.1,33.9,30.43,North,360,0.0,4.0,40,0.00,,,0.00,Wunderground v.1.15,2013-11-04 19:27:00,
2013-11-04 14:30:00,50.2,49.4,30.38,North,-999,0.0,0.0,97,0.00,,,-99.99,WeatherLink 6.0.3,2013-11-04 19:30:00,
2013-11-04 14:32:00,58.1,33.2,30.43,ESE,110,3.0,6.0,39,0.00,,,0.00,Wunderground v.1.15,2013-11-04 19:32:00,
2013-11-04 14:37:00,56.9,32.8,30.43,SSW,208,4.0,12.0,40,0.00,,,0.00,Wunderground v.1.15,2013-11-04 19:37:00,
2013-11-04 14:42:00,56.0,32.6,30.43,ESE,117,1.0,7.0,41,0.00,,,0.00,Wunderground v.1.15,2013-11-04 19:42:00,
2013-11-04 14:47:00,55.9,33.7,30.42,ESE,121,0.0,7.0,43,0.00,,,0.00,Wunderground v.1.15,2013-11-04 19:47:00,
2013-11-04 14:52:00,55.7,32.9,30.42,ESE,121,0.0,1.0,42,0.00,,,0.00,Wunderground v.1.15,2013-11-04 19:52:00,
2013-11-04 14:57:00,55.9,33.1,30.42,ESE,110,0.0,5.0,42,0.00,,,0.00,Wunderground v.1.15,2013-11-04 19:57:00,
2013-11-04 15:00:00,50.2,49.4,30.38,North,-999,0.0,0.0,97,0.00,,,-99.99,WeatherLink 6.0.3,2013-11-04 20:00:00,
2013-11-04 15:02:00,55.8,33.0,30.42,ENE,62,0.0,7.0,42,0.00,,,0.00,Wunderground v.1.15,2013-11-04 20:02:00,
2013-11-04 15:07:00,55.6,32.8,30.42,SE,132,0.0,7.0,42,0.00,,,0.00,Wunderground v.1.15,2013-11-04 20:07:00,
2013-11-04 15:12:00,55.4,33.8,30.42,East,94,2.0,5.0,44,0.00,,,0.00,Wunderground v.1.15,2013-11-04 20:12:00,
2013-11-04 15:17:00,55.4,33.8,30.42,East,81,0.0,5.0,44,0.00,,,0.00,Wunderground v.1.15,2013-11-04 20:17:00,
2013-11-04 15:22:00,55.4,34.4,30.42,East,80,1.0,2.0,45,0.00,,,0.00,Wunderground v.1.15,2013-11-04 20:22:00,
2013-11-04 15:27:00,55.4,34.4,30.42,NE,56,0.0,4.0,45,0.00,,,0.00,Wunderground v.1.15,2013-11-04 20:27:00,
2013-11-04 15:30:00,50.2,49.4,30.36,North,-999,0.0,0.0,97,0.00,,,-99.99,WeatherLink 6.0.3,2013-11-04 20:30:00,
2013-11-04 15:32:00,55.3,33.7,30.43,East,87,0.0,1.0,44,0.00,,,0.00,Wunderground v.1.15,2013-11-04 20:32:00,
2013-11-04 15:37:00,55.2,34.2,30.43,East,87,0.0,1.0,45,0.00,,,0.00,Wunderground v.1.15,2013-11-04 20:37:00,
2013-11-04 15:42:00,55.3,34.9,30.43,East,87,2.0,3.0,46,0.00,,,0.00,Wunderground v.1.15,2013-11-04 20:42:00,
2013-11-04 15:47:00,55.4,33.3,30.43,ENE,69,1.0,5.0,43,0.00,,,0.00,Wunderground v.1.15,2013-11-04 20:47:00,
2013-11-04 15:52:00,55.4,34.4,30.43,SE,124,1.0,4.0,45,0.00,,,0.00,Wunderground v.1.15,2013-11-04 20:52:00,
2013-11-04 15:57:00,55.5,34.5,30.42,ESE,116,0.0,4.0,45,0.00,,,0.00,Wunderground v.1.15,2013-11-04 20:57:00,
2013-11-04 16:00:00,50.1,49.3,30.36,North,-999,0.0,0.0,97,0.00,,,-99.99,WeatherLink 6.0.3,2013-11-04 21:00:00,
2013-11-04 16:02:00,55.5,33.9,30.42,ESE,110,6.0,7.0,44,0.00,,,0.00,Wunderground v.1.15,2013-11-04 21:02:00,
2013-11-04 16:07:00,55.1,33.6,30.43,ESE,117,0.0,7.0,44,0.00,,,0.00,Wunderground v.1.15,2013-11-04 21:07:00,
2013-11-04 16:12:00,54.8,33.8,30.42,ESE,110,2.0,3.0,45,0.00,,,0.00,Wunderground v.1.15,2013-11-04 21:12:00,
2013-11-04 16:17:00,54.5,33.6,30.42,ESE,117,1.0,4.0,45,0.00,,,0.00,Wunderground v.1.15,2013-11-04 21:17:00,
2013-11-04 16:22:00,54.4,34.0,30.42,ESE,117,0.0,2.0,46,0.00,,,0.00,Wunderground v.1.15,2013-11-04 21:22:00,
2013-11-04 16:27:00,54.2,33.9,30.42,ESE,105,2.0,5.0,46,0.00,,,0.00,Wunderground v.1.15,2013-11-04 21:27:00,
2013-11-04 16:30:00,50.3,49.5,30.34,NNW,337,0.0,1.0,97,0.00,,,-99.99,WeatherLink 6.0.3,2013-11-04 21:30:00,
2013-11-04 16:32:00,54.1,33.8,30.42,SE,125,4.0,9.0,46,0.00,,,0.00,Wunderground v.1.15,2013-11-04 21:32:00,
2013-11-04 16:37:00,53.9,34.6,30.42,ESE,104,2.0,9.0,48,0.00,,,0.00,Wunderground v.1.15,2013-11-04 21:37:00,
2013-11-04 16:42:00,53.7,33.9,30.42,ESE,105,0.0,1.0,47,0.00,,,0.00,Wunderground v.1.15,2013-11-04 21:42:00,
2013-11-04 16:47:00,53.5,34.3,30.42,ESE,105,1.0,1.0,48,0.00,,,0.00,Wunderground v.1.15,2013-11-04 21:47:00,
2013-11-04 16:52:00,53.1,34.4,30.43,ESE,105,0.0,1.0,49,0.00,,,0.00,Wunderground v.1.15,2013-11-04 21:52:00,
2013-11-04 16:57:00,52.9,34.2,30.43,ESE,105,0.0,1.0,49,0.00,,,0.00,Wunderground v.1.15,2013-11-04 21:57:00,
2013-11-04 17:00:00,50.3,49.5,30.33,NNW,337,0.0,1.0,97,0.00,,,-99.99,WeatherLink 6.0.3,2013-11-04 22:00:00,
2013-11-04 17:02:00,52.7,34.6,30.43,ESE,105,0.0,0.0,50,0.00,,,0.00,Wunderground v.1.15,2013-11-04 22:02:00,
2013-11-04 17:07:00,52.5,35.4,30.43,ESE,105,0.0,0.0,52,0.00,,,0.00,Wunderground v.1.15,2013-11-04 22:07:00,
2013-11-04 17:12:00,52.2,36.0,30.43,ESE,105,0.0,0.0,54,0.00,,,0.00,Wunderground v.1.15,2013-11-04 22:12:00,
2013-11-04 17:17:00,51.8,35.7,30.43,ESE,105,0.0,0.0,54,0.00,,,0.00,Wunderground v.1.15,2013-11-04 22:17:00,
2013-11-04 17:23:00,51.4,36.2,30.43,ESE,105,0.0,0.0,56,0.00,,,0.00,Wunderground v.1.15,2013-11-04 22:23:00,
2013-11-04 17:28:00,51.1,35.9,30.43,ESE,105,0.0,0.0,56,0.00,,,0.00,Wunderground v.1.15,2013-11-04 22:28:00,
2013-11-04 17:30:00,50.4,49.9,30.33,North,-999,0.0,0.0,98,0.00,,,-99.99,WeatherLink 6.0.3,2013-11-04 22:30:00,
2013-11-04 17:33:00,50.8,36.5,30.43,ESE,105,0.0,0.0,58,0.00,,,0.00,Wunderground v.1.15,2013-11-04 22:33:00,
2013-11-04 17:38:00,50.3,36.5,30.43,ESE,105,0.0,0.0,59,0.00,,,0.00,Wunderground v.1.15,2013-11-04 22:38:00,
2013-11-04 17:43:00,49.8,36.9,30.43,ESE,105,0.0,0.0,61,0.00,,,0.00,Wunderground v.1.15,2013-11-04 22:43:00,
2013-11-04 17:48:00,49.4,36.9,30.43,ESE,105,0.0,0.0,62,0.00,,,0.00,Wunderground v.1.15,2013-11-04 22:48:00,
2013-11-04 17:53:00,49.0,36.5,30.44,ESE,105,0.0,0.0,62,0.00,,,0.00,Wunderground v.1.15,2013-11-04 22:53:00,
2013-11-04 17:58:00,48.6,36.2,30.44,ESE,105,0.0,0.0,62,0.00,,,0.00,Wunderground v.1.15,2013-11-04 22:58:00,
2013-11-04 18:00:00,50.5,50.0,30.32,North,-999,0.0,0.0,98,0.00,,,-99.99,WeatherLink 6.0.3,2013-11-04 23:00:00,
2013-11-04 18:03:00,48.1,36.1,30.44,ESE,105,0.0,0.0,63,0.00,,,0.00,Wunderground v.1.15,2013-11-04 23:03:00,
2013-11-04 18:08:00,47.8,35.8,30.44,ESE,105,0.0,0.0,63,0.00,,,0.00,Wunderground v.1.15,2013-11-04 23:08:00,
2013-11-04 18:13:00,47.4,35.4,30.45,ESE,105,0.0,1.0,63,0.00,,,0.00,Wunderground v.1.15,2013-11-04 23:13:00,
2013-11-04 18:18:00,47.1,35.9,30.45,ESE,105,0.0,1.0,65,0.00,,,0.00,Wunderground v.1.15,2013-11-04 23:18:00,
2013-11-04 18:23:00,46.9,36.1,30.44,ESE,105,0.0,0.0,66,0.00,,,0.00,Wunderground v.1.15,2013-11-04 23:23:00,
2013-11-04 18:28:00,46.7,36.3,30.45,ESE,105,0.0,0.0,67,0.00,,,0.00,Wunderground v.1.15,2013-11-04 23:28:00,
2013-11-04 18:30:00,50.3,49.5,30.33,North,-999,0.0,0.0,97,0.00,,,-99.99,WeatherLink 6.0.3,2013-11-04 23:30:00,
2013-11-04 18:33:00,46.5,36.9,30.44,ESE,105,0.0,0.0,69,0.00,,,0.00,Wunderground v.1.15,2013-11-04 23:33:00,
2013-11-04 18:38:00,46.3,36.7,30.45,ESE,105,0.0,0.0,69,0.00,,,0.00,Wunderground v.1.15,2013-11-04 23:38:00,
2013-11-04 18:43:00,45.9,36.7,30.45,ESE,105,0.0,0.0,70,0.00,,,0.00,Wunderground v.1.15,2013-11-04 23:43:00,
2013-11-04 18:48:00,45.4,36.5,30.45,ESE,105,0.0,1.0,71,0.00,,,0.00,Wunderground v.1.15,2013-11-04 23:48:00,
2013-11-04 18:53:00,45.0,36.5,30.45,ESE,105,0.0,2.0,72,0.00,,,0.00,Wunderground v.1.15,2013-11-04 23:53:00,
2013-11-04 18:58:00,44.6,36.5,30.45,ESE,105,0.0,2.0,73,0.00,,,0.00,Wunderground v.1.15,2013-11-04 23:58:00,
2013-11-04 19:00:00,50.5,50.0,30.32,North,-999,0.0,0.0,98,0.00,,,-99.99,WeatherLink 6.0.3,2013-11-05 00:00:00,
2013-11-04 19:03:00,44.4,36.3,30.46,ESE,105,0.0,0.0,73,0.00,,,0.00,Wunderground v.1.15,2013-11-05 00:03:00,
2013-11-04 19:08:00,44.3,36.5,30.46,ESE,105,0.0,0.0,74,0.00,,,0.00,Wunderground v.1.15,2013-11-05 00:08:00,
2013-11-04 19:13:00,44.3,36.2,30.46,ESE,105,0.0,2.0,73,0.00,,,0.00,Wunderground v.1.15,2013-11-05 00:13:00,
2013-11-04 19:18:00,44.3,36.5,30.46,ESE,105,0.0,2.0,74,0.00,,,0.00,Wunderground v.1.15,2013-11-05 00:18:00,
2013-11-04 19:23:00,44.3,36.5,30.46,ESE,105,0.0,0.0,74,0.00,,,0.00,Wunderground v.1.15,2013-11-05 00:23:00,
2013-11-04 19:29:00,44.1,37.0,30.45,ESE,105,0.0,0.0,76,0.00,,,0.00,Wunderground v.1.15,2013-11-05 00:29:00,
2013-11-04 19:30:00,50.4,49.9,30.33,North,-999,0.0,0.0,98,0.00,,,-99.99,WeatherLink 6.0.3,2013-11-05 00:30:00,
2013-11-04 19:34:00,43.8,36.4,30.45,ESE,105,0.0,0.0,75,0.00,,,0.00,Wunderground v.1.15,2013-11-05 00:34:00,
2013-11-04 19:39:00,43.7,36.6,30.45,ESE,105,0.0,0.0,76,0.00,,,0.00,Wunderground v.1.15,2013-11-05 00:39:00,
2013-11-04 19:44:00,43.5,36.8,30.45,ESE,105,0.0,0.0,77,0.00,,,0.00,Wunderground v.1.15,2013-11-05 00:44:00,
2013-11-04 19:49:00,43.3,36.6,30.45,ESE,105,0.0,0.0,77,0.00,,,0.00,Wunderground v.1.15,2013-11-05 00:49:00,
2013-11-04 19:54:00,43.0,36.6,30.46,ESE,105,0.0,0.0,78,0.00,,,0.00,Wunderground v.1.15,2013-11-05 00:54:00,
2013-11-04 19:59:00,42.8,36.4,30.46,ESE,105,0.0,0.0,78,0.00,,,0.00,Wunderground v.1.15,2013-11-05 00:59:00,
2013-11-04 20:00:00,50.4,49.9,30.32,North,-999,0.0,0.0,98,0.00,,,-99.99,WeatherLink 6.0.3,2013-11-05 01:00:00,
2013-11-04 20:04:00,42.7,36.0,30.47,ESE,105,0.0,1.0,77,0.00,,,0.00,Wunderground v.1.15,2013-11-05 01:04:00,
2013-11-04 20:09:00,42.7,36.6,30.47,ESE,105,0.0,1.0,79,0.00,,,0.00,Wunderground v.1.15,2013-11-05 01:09:00,
2013-11-04 20:14:00,42.7,36.0,30.46,ESE,105,0.0,0.0,77,0.00,,,0.00,Wunderground v.1.15,2013-11-05 01:14:00,
2013-11-04 20:19:00,42.6,36.2,30.47,ESE,105,0.0,0.0,78,0.00,,,0.00,Wunderground v.1.15,2013-11-05 01:19:00,
2013-11-04 20:24:00,42.3,35.9,30.48,ESE,105,0.0,0.0,78,0.00,,,0.00,Wunderground v.1.15,2013-11-05 01:24:00,
2013-11-04 20:29:00,42.4,36.7,30.47,ESE,105,0.0,0.0,80,0.00,,,0.00,Wunderground v.1.15,2013-11-05 01:29:00,
2013-11-04 20:30:00,50.5,50.0,30.33,North,-999,0.0,0.0,98,0.00,,,-99.99,WeatherLink 6.0.3,2013-11-05 01:30:00,
2013-11-04 20:35:00,42.1,35.7,30.46,ESE,105,0.0,0.0,78,0.00,,,0.00,Wunderground v.1.15,2013-11-05 01:35:00,
2013-11-04 20:40:00,41.8,35.4,30.45,ESE,105,0.0,0.0,78,0.00,,,0.00,Wunderground v.1.15,2013-11-05 01:40:00,
2013-11-04 20:45:00,41.5,35.2,30.46,ESE,105,0.0,0.0,78,0.00,,,0.00,Wunderground v.1.15,2013-11-05 01:45:00,
2013-11-04 20:50:00,41.5,35.5,30.46,ESE,105,0.0,0.0,79,0.00,,,0.00,Wunderground v.1.15,2013-11-05 01:50:00,
2013-11-04 20:55:00,41.6,36.2,30.46,ESE,105,0.0,0.0,81,0.00,,,0.00,Wunderground v.1.15,2013-11-05 01:55:00,
2013-11-04 21:00:00,41.7,36.0,30.47,ESE,105,0.0,0.0,80,0.00,,,0.00,Wunderground v.1.15,2013-11-05 02:00:00,
2013-11-04 21:05:00,41.9,36.5,30.47,ESE,105,0.0,0.0,81,0.00,,,0.00,Wunderground v.1.15,2013-11-05 02:05:00,
2013-11-04 21:10:00,42.0,37.5,30.48,ESE,105,0.0,0.0,84,0.00,,,0.00,Wunderground v.1.15,2013-11-05 02:10:00,
2013-11-04 21:15:00,41.8,36.4,30.47,ESE,105,0.0,0.0,81,0.00,,,0.00,Wunderground v.1.15,2013-11-05 02:15:00,
2013-11-04 21:20:00,41.3,35.9,30.48,ESE,105,0.0,0.0,81,0.00,,,0.00,Wunderground v.1.15,2013-11-05 02:20:00,
2013-11-04 21:25:00,41.0,35.9,30.47,ESE,105,0.0,0.0,82,0.00,,,0.00,Wunderground v.1.15,2013-11-05 02:25:00,
2013-11-04 21:30:00,40.9,36.1,30.47,ESE,105,0.0,0.0,83,0.00,,,0.00,Wunderground v.1.15,2013-11-05 02:30:00,
2013-11-04 21:35:00,41.0,37.7,30.47,ESE,105,0.0,0.0,88,0.00,,,0.00,Wunderground v.1.15,2013-11-05 02:35:00,
2013-11-04 21:40:00,41.3,36.5,30.47,ESE,105,0.0,0.0,83,0.00,,,0.00,Wunderground v.1.15,2013-11-05 02:40:00,
2013-11-04 21:45:00,41.5,36.7,30.47,ESE,105,0.0,0.0,83,0.00,,,0.00,Wunderground v.1.15,2013-11-05 02:45:00,
2013-11-04 21:50:00,41.5,36.7,30.48,ESE,105,0.0,0.0,83,0.00,,,0.00,Wunderground v.1.15,2013-11-05 02:50:00,
2013-11-04 21:55:00,41.3,36.5,30.48,ESE,105,0.0,1.0,83,0.00,,,0.00,Wunderground v.1.15,2013-11-05 02:55:00,
2013-11-04 22:00:00,41.0,36.2,30.48,ESE,105,0.0,0.0,83,0.00,,,0.00,Wunderground v.1.15,2013-11-05 03:00:00,
2013-11-04 22:06:00,40.7,36.2,30.48,ESE,105,0.0,0.0,84,0.00,,,0.00,Wunderground v.1.15,2013-11-05 03:06:00,
2013-11-04 22:11:00,40.4,35.9,30.48,ESE,105,0.0,0.0,84,0.00,,,0.00,Wunderground v.1.15,2013-11-05 03:11:00,
2013-11-04 22:16:00,40.4,35.9,30.48,ESE,105,0.0,0.0,84,0.00,,,0.00,Wunderground v.1.15,2013-11-05 03:16:00,
2013-11-04 22:21:00,40.4,35.6,30.48,ESE,105,0.0,0.0,83,0.00,,,0.00,Wunderground v.1.15,2013-11-05 03:21:00,
2013-11-04 22:26:00,40.5,36.0,30.48,ESE,105,0.0,0.0,84,0.00,,,0.00,Wunderground v.1.15,2013-11-05 03:26:00,
2013-11-04 22:30:00,51.8,51.3,30.33,NNW,337,0.0,1.0,98,0.00,,,-99.99,WeatherLink 6.0.3,2013-11-05 03:30:00,
2013-11-04 22:31:00,40.6,35.8,30.48,ESE,105,0.0,0.0,83,0.00,,,0.00,Wunderground v.1.15,2013-11-05 03:31:00,
2013-11-04 22:36:00,40.5,36.0,30.48,ESE,105,0.0,0.0,84,0.00,,,0.00,Wunderground v.1.15,2013-11-05 03:36:00,
2013-11-04 22:41:00,40.3,35.8,30.48,ESE,105,0.0,0.0,84,0.00,,,0.00,Wunderground v.1.15,2013-11-05 03:41:00,
2013-11-04 22:46:00,40.1,35.4,30.48,ESE,105,0.0,0.0,83,0.00,,,0.00,Wunderground v.1.15,2013-11-05 03:46:00,
2013-11-04 22:51:00,39.9,35.5,30.48,ESE,105,0.0,0.0,84,0.00,,,0.00,Wunderground v.1.15,2013-11-05 03:51:00,
2013-11-04 22:56:00,39.7,35.6,30.48,ESE,105,0.0,0.0,85,0.00,,,0.00,Wunderground v.1.15,2013-11-05 03:56:00,
2013-11-04 23:00:00,52.6,51.8,30.33,ENE,67,0.0,1.0,97,0.00,,,-99.99,WeatherLink 6.0.3,2013-11-05 04:00:00,
2013-11-04 23:01:00,39.9,36.1,30.48,ESE,105,0.0,0.0,86,0.00,,,0.00,Wunderground v.1.15,2013-11-05 04:01:00,
2013-11-04 23:06:00,39.8,35.7,30.48,ESE,105,0.0,0.0,85,0.00,,,0.00,Wunderground v.1.15,2013-11-05 04:06:00,
2013-11-04 23:11:00,39.4,35.3,30.47,ESE,105,0.0,0.0,85,0.00,,,0.00,Wunderground v.1.15,2013-11-05 04:11:00,
2013-11-04 23:16:00,39.3,35.5,30.48,ESE,105,0.0,1.0,86,0.00,,,0.00,Wunderground v.1.15,2013-11-05 04:16:00,
2013-11-04 23:21:00,39.0,34.9,30.48,ESE,105,0.0,0.0,85,0.00,,,0.00,Wunderground v.1.15,2013-11-05 04:21:00,
2013-11-04 23:26:00,38.9,35.4,30.47,ESE,105,0.0,0.0,87,0.00,,,0.00,Wunderground v.1.15,2013-11-05 04:26:00,
2013-11-04 23:30:00,53.4,52.0,30.33,ESE,112,0.0,5.0,95,0.00,,,-99.99,WeatherLink 6.0.3,2013-11-05 04:30:00,
2013-11-04 23:31:00,39.1,35.6,30.47,ESE,105,0.0,0.0,87,0.00,,,0.00,Wunderground v.1.15,2013-11-05 04:31:00,
2013-11-04 23:36:00,38.9,35.1,30.48,ESE,105,0.0,0.0,86,0.00,,,0.00,Wunderground v.1.15,2013-11-05 04:36:00,
2013-11-04 23:41:00,38.8,35.6,30.48,ESE,105,0.0,0.0,88,0.00,,,0.00,Wunderground v.1.15,2013-11-05 04:41:00,
2013-11-04 23:46:00,38.9,35.4,30.48,ESE,105,0.0,0.0,87,0.00,,,0.00,Wunderground v.1.15,2013-11-05 04:46:00,
2013-11-04 23:51:00,38.7,35.2,30.48,ESE,105,0.0,1.0,87,0.00,,,0.00,Wunderground v.1.15,2013-11-05 04:51:00,
2013-11-04 23:56:00,38.4,34.6,30.49,NW,309,0.0,2.0,86,0.00,,,0.00,Wunderground v.1.15,2013-11-05 04:56:00,